Amelia Court House, VA

7:40 AM EST on November 26, 2014 (GMT -0500)
Woodlake - Orchard Grove | Change Station
CLOSE
Current Station
Personal Weather Station
Location: Midlothian, VA
Elevation: 230 ft
Nearby Weather Stations

Elev 230 ft 37.42 °N, 77.69 °W | Updated 1 second ago

Rain
Rain
44.1 °F
Feels Like 44 °F
N
2.9
Wind Variable Wind from SSE
Gusts 4.0 mph

Today
High -- | Low -- °F
--% Chance of Precip.
Yesterday
High -- | Low -- °F
Precip. -- in
7:02 AM 4:55 PM
Waxing Crescent, 19% visible
Pressure 29.97 in
Visibility 9.0 miles
Clouds Few 800 ft
Overcast 1600 ft
Windchill 44 °F
Dew Point 43 °F
Humidity 95%
Rainfall 0.50 in
Snow Depth Not available.
UV 0 out of 12
Pollen .10 out of 12
Air Quality Not available.
Flu Activity Not available.
METAR KFCI 261155Z AUTO 04009G17KT 9SM FEW008 OVC016 07/00 A2997 RMK AO1 P0014 60045 70051 10090 20070 57024

More Conditions Fewer Conditions

Pressure 29.97 in
Visibility 9.0 miles
Clouds Few 800 ft
Overcast 1600 ft
Windchill 44 °F
Dew Point 43 °F
Humidity 95%
Rainfall 0.50 in
Snow Depth Not available.
UV 0 out of 12
Pollen .10 out of 12
Air Quality Not available.
Flu Activity Not available.
METAR KFCI 261155Z AUTO 04009G17KT 9SM FEW008 OVC016 07/00 A2997 RMK AO1 P0014 60045 70051 10090 20070 57024

More Conditions Fewer Conditions

10-Day Weather Forecast

Almanac

Astronomy

Nov. 26, 2014 Rise Set
Actual Time
Civil Twilight
Nautical Twilight
Astronomical Twilight
Moon
Length of Visible Light
Length of Day
Tomorrow will be .
, % of the Moon is Illuminated

Today's Extremes

State Highs State Lows

Community

WunderPhotos

Upload Photos

1,773,715 photos uploaded!

WunderBlogs® & News

Nearby

Air Quality

  Air Quality AQ Index Pollutant
Not available.

Snow Depth

Station Depth Elevation

Earthquake Activity

City Distance Mag. Time & Date
Minimum magnitude displayed is 2.5.

Coastal Water Temperatures

Place Temperature

Nearby Weather Stations